sim
Sign-in with your pilot id or email,
or register
Callsign
Passwort

Schedule Details

Flight Number: OEO2676
Departure: Paderborn Lippstadt Airport (EDLP) at 04:25
Arrival: Fuerteventura Airport (GCFV) at 09:20

Weather Information
Getting current METAR information for EDLP 160250Z 12007KT CAVOK 03/M03 Q1025
Getting current METAR information for GCFV 160230Z AUTO 28005KT 9999 NCD 13/10 Q1018

Schedule Frequency

Route Map